Terminal Aerodrome Forecast
Issued by NWS Grand Forks, ND

Home | Current Version | Previous Version | Graphics & Text | Print | Product List | Glossary On
Versions: 1 2 3 4 5 6 7 8 9 10 11 12 13
000
FTUS43 KFGF 260500
TAFGFK
TAF
KGFK 260537Z 2606/2706 36015KT P6SM -SN OVC045
      TEMPO 2606/2607 4SM -SN BR OVC023
     FM260700 35015KT P6SM OVC025
     FM261000 35012KT P6SM SCT025
     FM261500 34011KT P6SM FEW050=

USA.gov is the U.S. government's official web portal to all federal, state and local government web resources and services.